Terminal Aerodrome Forecast
Issued by NWS Melbourne, FL

Home | Current Version | Previous Version | Text Only | Print | Product List | Glossary On
Versions: 1 2 3 4 5 6 7 8 9 10 11 12
000
FTUS42 KMLB 052325
TAFVRB
TAF
KVRB 052325Z 0600/0624 16005KT P6SM BKN120
     FM060800 17006KT P6SM SCT008
     FM061500 19014G22KT P6SM FEW020 BKN040
     FM061800 21017G24KT P6SM SCT030 BKN050
     FM062100 23013KT P6SM VCSH BKN050=

USA.gov is the U.S. government's official web portal to all federal, state and local government web resources and services.